Time;durP1;ratioP1;P1;durP2;ratioP2;P2;SDS_P1;SDS_P2;PMS_P1;PMS_P2;Temp;Humidity;BMP_temperature;BMP_pressure;BME280_temperature;BME280_humidity;BME280_pressure;Samples;Min_cycle;Max_cycle;Signal;HPM_P1;HPM_P2
2021/12/21 00:00:30;;;;;;;1.20;1.17;;;-2.20;99.90;;;;;;5125588;27;20203;-54
2021/12/21 00:02:56;;;;;;;3.90;1.80;;;-2.20;99.90;;;;;;5123443;27;20172;-50
2021/12/21 00:05:27;;;;;;;1.80;1.30;;;-2.30;99.90;;;;;;5124953;27;20219;-47
2021/12/21 00:07:55;;;;;;;1.57;1.47;;;-2.40;99.90;;;;;;5123651;27;20298;-46
2021/12/21 00:10:24;;;;;;;1.00;1.00;;;-2.50;99.90;;;;;;5123818;27;20275;-49
2021/12/21 00:18:13;;;;;;;5.53;1.97;;;-2.30;99.90;;;;;;5124459;28;20184;-52
2021/12/21 00:25:44;;;;;;;1.67;0.97;;;-2.40;99.90;;;;;;5123225;28;20184;-46
2021/12/21 00:28:09;;;;;;;2.47;1.10;;;-2.30;99.90;;;;;;5106387;28;20184;-47
2021/12/21 00:30:35;;;;;;;0.37;0.37;;;-2.30;99.90;;;;;;5106965;28;20188;-48
2021/12/21 00:33:01;;;;;;;2.63;0.90;;;-2.30;99.90;;;;;;5106192;28;20176;-52
2021/12/21 00:35:27;;;;;;;0.40;0.40;;;-2.30;99.90;;;;;;5124855;27;20191;-50
2021/12/21 00:37:53;;;;;;;1.00;1.00;;;-2.30;99.90;;;;;;5123568;28;20184;-49
2021/12/21 00:40:19;;;;;;;0.87;0.83;;;-2.40;99.90;;;;;;5124709;28;20184;-45
2021/12/21 00:42:45;;;;;;;2.87;1.27;;;-2.40;99.90;;;;;;5123481;27;20203;-44
2021/12/21 00:45:10;;;;;;;0.57;0.57;;;-2.40;99.90;;;;;;5123481;27;20208;-46
2021/12/21 00:47:40;;;;;;;3.37;2.07;;;-2.40;99.90;;;;;;5123906;28;20184;-46
2021/12/21 00:50:15;;;;;;;2.27;1.70;;;-2.40;99.90;;;;;;5122895;27;20210;-49
2021/12/21 00:52:41;;;;;;;5.00;1.17;;;-2.50;99.90;;;;;;5124535;28;20223;-46
2021/12/21 00:55:07;;;;;;;1.50;0.90;;;-2.50;99.90;;;;;;5122656;28;20260;-49
2021/12/21 00:57:33;;;;;;;0.90;0.90;;;-2.50;99.90;;;;;;5124624;28;20188;-49
2021/12/21 00:59:59;;;;;;;5.37;1.27;;;-2.60;99.90;;;;;;5123295;27;20192;-57
2021/12/21 01:02:25;;;;;;;0.63;0.63;;;-2.40;99.90;;;;;;5106464;28;20319;-52
2021/12/21 01:04:51;;;;;;;0.53;0.53;;;-2.40;99.90;;;;;;5123207;28;20217;-48
2021/12/21 01:07:25;;;;;;;1.40;0.87;;;-2.40;99.90;;;;;;5122862;28;20176;-45
2021/12/21 01:18:09;;;;;;;0.63;0.63;;;-2.40;99.90;;;;;;5126912;27;20188;-48
2021/12/21 01:20:48;;;;;;;1.13;0.80;;;-2.30;99.90;;;;;;5126741;27;20223;-46
2021/12/21 01:31:27;;;;;;;3.33;0.37;;;-2.30;99.90;;;;;;5127170;27;20185;-46
2021/12/21 01:36:59;;;;;;;1.30;1.07;;;-2.30;99.90;;;;;;5081664;27;20214;-49
2021/12/21 01:43:05;;;;;;;1.13;1.07;;;-2.40;99.90;;;;;;5126234;27;20192;-51
2021/12/21 01:50:26;;;;;;;1.23;1.07;;;-2.50;99.90;;;;;;5125643;27;20195;-51
2021/12/21 01:52:52;;;;;;;0.30;0.30;;;-2.60;99.90;;;;;;5126883;27;20287;-45
2021/12/21 01:55:18;;;;;;;1.63;1.53;;;-2.70;99.90;;;;;;5125570;27;20240;-44
2021/12/21 01:57:44;;;;;;;1.10;1.07;;;-2.70;99.90;;;;;;5110176;27;20185;-47
2021/12/21 02:00:11;;;;;;;1.07;1.07;;;-2.60;99.90;;;;;;5125263;27;20196;-44
2021/12/21 02:02:38;;;;;;;0.67;0.67;;;-2.60;99.90;;;;;;5127507;27;20219;-44
2021/12/21 02:05:04;;;;;;;0.90;0.90;;;-2.70;99.90;;;;;;5126515;27;20240;-46
2021/12/21 02:07:30;;;;;;;2.00;1.80;;;-2.70;99.90;;;;;;5125701;27;20249;-47
2021/12/21 02:09:56;;;;;;;3.73;1.60;;;-2.80;99.90;;;;;;5126163;27;20192;-49
2021/12/21 02:12:22;;;;;;;0.67;0.67;;;-2.80;99.90;;;;;;5125318;27;20192;-53
2021/12/21 02:14:56;;;;;;;0.53;0.53;;;-2.80;99.90;;;;;;5127055;27;20198;-52
2021/12/21 02:20:15;;;;;;;0.40;0.40;;;-2.80;99.90;;;;;;5127154;27;20192;-49
2021/12/21 02:22:51;;;;;;;0.33;0.33;;;-2.80;99.90;;;;;;5108414;27;20192;-54
2021/12/21 02:27:56;;;;;;;3.17;1.60;;;-2.80;99.90;;;;;;5126459;27;20192;-46
2021/12/21 02:30:23;;;;;;;0.63;0.63;;;-2.80;99.90;;;;;;5124813;27;20194;-54
2021/12/21 02:32:49;;;;;;;6.60;0.83;;;-2.80;99.90;;;;;;5127208;27;20188;-54
2021/12/21 02:35:15;;;;;;;8.63;0.87;;;-2.80;99.90;;;;;;5125196;27;20190;-58
2021/12/21 02:37:41;;;;;;;1.70;1.60;;;-2.90;99.90;;;;;;5124957;27;20185;-51
2021/12/21 02:40:08;;;;;;;1.40;1.00;;;-2.90;99.90;;;;;;5125224;27;20241;-51
2021/12/21 02:42:34;;;;;;;0.50;0.50;;;-2.90;99.90;;;;;;5125131;27;20181;-54
2021/12/21 02:45:00;;;;;;;13.43;0.60;;;-3.00;99.90;;;;;;5125895;27;20223;-53
2021/12/21 02:47:26;;;;;;;0.70;0.63;;;-3.00;99.90;;;;;;5124526;27;20192;-57
2021/12/21 02:49:51;;;;;;;1.37;1.20;;;-3.00;99.90;;;;;;5126817;27;20189;-52
2021/12/21 02:52:18;;;;;;;0.30;0.30;;;-3.00;99.90;;;;;;5124650;27;20237;-55
2021/12/21 02:54:44;;;;;;;0.50;0.50;;;-3.10;99.90;;;;;;5125168;27;20311;-52
2021/12/21 02:57:10;;;;;;;1.13;1.13;;;-3.10;99.90;;;;;;5125090;27;20275;-47
2021/12/21 02:59:36;;;;;;;1.13;1.03;;;-3.20;99.90;;;;;;5124163;27;20234;-52
2021/12/21 03:02:01;;;;;;;1.50;0.83;;;-3.20;99.90;;;;;;5125761;27;20219;-54
2021/12/21 03:04:27;;;;;;;1.60;0.63;;;-3.20;99.90;;;;;;5124204;27;20232;-52
2021/12/21 03:11:57;;;;;;;12.97;0.90;;;-3.30;99.90;;;;;;5125658;27;20267;-52
2021/12/21 03:14:27;;;;;;;0.67;0.67;;;-3.30;99.90;;;;;;5125325;27;20188;-53
2021/12/21 03:16:53;;;;;;;2.53;1.90;;;-3.30;99.90;;;;;;5123443;27;20188;-45
2021/12/21 03:19:19;;;;;;;4.53;0.63;;;-3.30;99.90;;;;;;5107606;27;20291;-45
2021/12/21 03:21:45;;;;;;;3.17;1.87;;;-3.30;99.90;;;;;;5107026;27;20189;-44
2021/12/21 03:24:11;;;;;;;0.80;0.80;;;-3.30;99.90;;;;;;5125453;27;20273;-48
2021/12/21 03:26:37;;;;;;;0.53;0.53;;;-3.30;99.90;;;;;;5123776;27;20189;-50
2021/12/21 03:29:05;;;;;;;2.23;0.87;;;-3.30;99.90;;;;;;5125942;27;20188;-48
2021/12/21 03:31:31;;;;;;;0.80;0.80;;;-3.40;99.90;;;;;;5107381;27;20188;-51
2021/12/21 03:33:57;;;;;;;1.00;1.00;;;-3.30;99.90;;;;;;5123123;27;20188;-47
2021/12/21 03:36:23;;;;;;;0.90;0.83;;;-3.30;99.90;;;;;;5124200;27;20184;-44
2021/12/21 03:39:00;;;;;;;0.57;0.33;;;-3.30;99.90;;;;;;5124199;27;20307;-50
2021/12/21 03:41:26;;;;;;;0.47;0.47;;;-3.30;99.90;;;;;;5125431;27;20188;-47
2021/12/21 03:43:52;;;;;;;2.40;0.80;;;-3.30;99.90;;;;;;5106651;27;20224;-47
2021/12/21 03:46:18;;;;;;;0.70;0.70;;;-3.30;99.90;;;;;;5125257;27;20181;-47
2021/12/21 03:48:48;;;;;;;0.63;0.63;;;-3.30;99.90;;;;;;5123933;27;20195;-43
2021/12/21 03:51:18;;;;;;;1.17;1.17;;;-3.30;99.90;;;;;;5124031;27;20188;-51
2021/12/21 03:53:45;;;;;;;0.80;0.80;;;-3.30;99.90;;;;;;5123778;27;20224;-44
2021/12/21 03:58:56;;;;;;;2.47;1.47;;;-3.30;99.90;;;;;;5125378;27;20215;-45
2021/12/21 04:01:22;;;;;;;0.40;0.33;;;-3.30;99.90;;;;;;5124155;27;20220;-49
2021/12/21 04:03:49;;;;;;;1.30;0.67;;;-3.40;99.90;;;;;;5125400;27;20220;-46
2021/12/21 04:06:14;;;;;;;0.43;0.43;;;-3.40;99.90;;;;;;5107621;27;20188;-51
2021/12/21 04:08:41;;;;;;;1.13;1.13;;;-3.40;99.90;;;;;;5123695;27;20184;-45
2021/12/21 04:11:06;;;;;;;3.97;1.70;;;-3.50;99.90;;;;;;5123951;27;20188;-45
2021/12/21 04:13:32;;;;;;;0.80;0.80;;;-3.50;99.90;;;;;;5123309;27;20189;-51
2021/12/21 04:16:01;;;;;;;1.33;1.23;;;-3.50;99.90;;;;;;5124630;28;20176;-51
2021/12/21 04:18:27;;;;;;;2.30;1.10;;;-3.50;99.90;;;;;;5122795;28;20241;-51
2021/12/21 04:20:53;;;;;;;1.50;1.10;;;-3.40;99.90;;;;;;5124965;28;20188;-48
2021/12/21 04:23:19;;;;;;;3.80;0.97;;;-3.40;99.90;;;;;;5123226;28;20192;-55
2021/12/21 04:25:45;;;;;;;2.03;1.03;;;-3.50;99.90;;;;;;5124339;28;20594;-52
2021/12/21 04:28:11;;;;;;;1.20;1.10;;;-3.50;99.90;;;;;;5123679;27;20192;-50
2021/12/21 04:30:36;;;;;;;0.90;0.50;;;-3.60;99.90;;;;;;5122872;28;20192;-52
2021/12/21 04:33:03;;;;;;;0.73;0.73;;;-3.70;99.90;;;;;;5124346;28;20187;-47
2021/12/21 04:35:29;;;;;;;0.50;0.50;;;-3.60;99.90;;;;;;5123068;28;20181;-54
2021/12/21 04:38:02;;;;;;;0.30;0.30;;;-3.60;99.90;;;;;;5125528;28;20177;-50
2021/12/21 04:40:47;;;;;;;0.60;0.60;;;-3.60;99.90;;;;;;5123334;28;20187;-52
2021/12/21 04:43:13;;;;;;;3.33;1.33;;;-3.50;99.90;;;;;;5122999;28;20271;-48
2021/12/21 04:45:39;;;;;;;0.33;0.33;;;-3.50;99.90;;;;;;5126643;27;20216;-47
2021/12/21 04:48:05;;;;;;;0.83;0.60;;;-3.50;99.90;;;;;;5126930;27;20233;-49
2021/12/21 04:50:31;;;;;;;0.90;0.90;;;-3.60;99.90;;;;;;5128146;27;20181;-51
2021/12/21 04:52:57;;;;;;;1.97;1.67;;;-3.50;99.90;;;;;;5126368;27;20532;-47
2021/12/21 04:55:23;;;;;;;1.13;0.70;;;-3.40;99.90;;;;;;5128735;27;20261;-52
2021/12/21 04:57:49;;;;;;;2.00;1.50;;;-3.40;99.90;;;;;;5127076;27;20253;-53
2021/12/21 05:00:16;;;;;;;1.30;1.00;;;-3.50;99.90;;;;;;5128115;27;20180;-49
2021/12/21 05:02:42;;;;;;;0.43;0.43;;;-3.50;99.90;;;;;;5111064;27;20245;-49
2021/12/21 05:05:08;;;;;;;1.23;1.23;;;-3.50;99.90;;;;;;5126649;27;20276;-47
2021/12/21 05:07:36;;;;;;;1.03;1.03;;;-3.50;99.90;;;;;;5127705;27;20203;-45
2021/12/21 05:10:04;;;;;;;0.40;0.40;;;-3.50;99.90;;;;;;5127113;27;20185;-49
2021/12/21 05:12:30;;;;;;;2.53;2.33;;;-3.50;99.90;;;;;;5127799;27;20180;-53
2021/12/21 05:14:57;;;;;;;2.30;1.37;;;-3.40;99.90;;;;;;5109260;27;20191;-48
2021/12/21 05:17:23;;;;;;;1.10;1.03;;;-3.50;99.90;;;;;;5128481;27;20180;-45
2021/12/21 05:19:49;;;;;;;1.47;1.27;;;-3.60;99.90;;;;;;5126797;27;20638;-50
2021/12/21 05:22:16;;;;;;;0.40;0.40;;;-3.60;99.90;;;;;;5126275;27;20180;-47
2021/12/21 05:24:43;;;;;;;1.13;0.87;;;-3.50;99.90;;;;;;5127241;27;20212;-44
2021/12/21 05:27:10;;;;;;;0.80;0.80;;;-3.60;99.90;;;;;;5126160;27;20220;-47
2021/12/21 05:29:37;;;;;;;1.67;1.57;;;-3.50;99.90;;;;;;5110745;27;20177;-51
2021/12/21 05:32:04;;;;;;;0.77;0.77;;;-3.50;99.90;;;;;;5126326;27;20287;-49
2021/12/21 05:34:32;;;;;;;1.13;1.13;;;-3.50;99.90;;;;;;5128173;27;20195;-49
2021/12/21 05:36:58;;;;;;;3.03;1.00;;;-3.60;99.90;;;;;;5126495;27;20206;-46
2021/12/21 05:39:27;;;;;;;0.93;0.50;;;-3.50;99.90;;;;;;5126448;27;20237;-48
2021/12/21 05:41:55;;;;;;;6.50;0.83;;;-3.50;99.90;;;;;;5126806;27;20208;-51
2021/12/21 05:44:25;;;;;;;0.70;0.70;;;-3.60;99.90;;;;;;5125796;27;20326;-50
2021/12/21 05:46:55;;;;;;;1.13;1.13;;;-3.60;99.90;;;;;;5126522;27;20192;-47
2021/12/21 05:49:21;;;;;;;0.50;0.50;;;-3.60;99.90;;;;;;5125390;27;20191;-56
2021/12/21 05:51:47;;;;;;;1.53;1.40;;;-3.70;99.90;;;;;;5127783;27;20208;-54
2021/12/21 05:54:15;;;;;;;0.43;0.43;;;-3.60;99.90;;;;;;5126608;27;20372;-55
2021/12/21 05:56:41;;;;;;;1.17;1.17;;;-3.60;99.90;;;;;;5108195;27;20195;-44
2021/12/21 05:59:06;;;;;;;0.60;0.60;;;-3.60;99.90;;;;;;5109713;27;20255;-57
2021/12/21 06:01:33;;;;;;;1.43;1.37;;;-3.60;99.90;;;;;;5125941;27;20188;-45
2021/12/21 06:04:03;;;;;;;2.67;1.40;;;-3.70;99.90;;;;;;5126444;27;20255;-47
2021/12/21 06:06:31;;;;;;;0.53;0.53;;;-3.60;99.90;;;;;;5125719;27;20219;-50
2021/12/21 06:08:59;;;;;;;1.97;1.20;;;-3.70;99.90;;;;;;5110284;27;20200;-50
2021/12/21 06:11:25;;;;;;;0.50;0.50;;;-3.70;99.90;;;;;;5125226;27;20184;-46
2021/12/21 06:27:00;;;;;;;2.40;0.77;;;-3.70;99.90;;;;;;5126500;27;20314;-53
2021/12/21 06:29:26;;;;;;;1.23;1.13;;;-3.80;99.90;;;;;;5126245;27;20184;-51
2021/12/21 06:31:52;;;;;;;0.83;0.83;;;-3.80;99.90;;;;;;5125572;27;20191;-47
2021/12/21 06:34:18;;;;;;;4.70;0.57;;;-3.80;99.90;;;;;;5125160;27;20181;-48
2021/12/21 06:36:43;;;;;;;0.90;0.90;;;-3.80;99.90;;;;;;5107544;27;20203;-53
2021/12/21 06:39:10;;;;;;;1.93;0.83;;;-3.80;99.90;;;;;;5126621;27;20203;-47
2021/12/21 06:41:36;;;;;;;1.17;1.17;;;-3.70;99.90;;;;;;5107897;27;20192;-51
2021/12/21 06:44:04;;;;;;;0.20;0.20;;;-3.70;99.90;;;;;;5126103;27;20223;-48
2021/12/21 06:51:54;;;;;;;0.33;0.33;;;-3.70;99.90;;;;;;5125468;27;20227;-50
2021/12/21 06:54:21;;;;;;;2.43;1.20;;;-3.60;99.90;;;;;;5124721;27;20220;-48
2021/12/21 06:56:47;;;;;;;0.60;0.60;;;-3.70;99.90;;;;;;5126264;27;20192;-49
2021/12/21 06:59:13;;;;;;;2.60;0.57;;;-3.70;99.90;;;;;;5107909;27;20192;-48
2021/12/21 07:01:39;;;;;;;0.40;0.40;;;-3.70;99.90;;;;;;5124981;27;20201;-46
2021/12/21 07:04:07;;;;;;;1.20;0.57;;;-3.70;99.90;;;;;;5125160;27;20220;-44
2021/12/21 07:06:38;;;;;;;2.47;0.90;;;-3.70;99.90;;;;;;5124313;27;20195;-51
2021/12/21 07:11:53;;;;;;;2.00;1.43;;;-3.70;99.90;;;;;;5124200;27;20199;-53
2021/12/21 07:19:49;;;;;;;0.90;0.83;;;-3.70;99.90;;;;;;5124297;27;20192;-50
2021/12/21 07:22:15;;;;;;;0.57;0.57;;;-3.70;99.90;;;;;;5125116;27;20188;-53
2021/12/21 07:24:41;;;;;;;1.13;0.67;;;-3.70;99.90;;;;;;5124306;27;20212;-57
2021/12/21 07:27:07;;;;;;;1.53;0.83;;;-3.70;99.90;;;;;;5126201;27;20265;-50
2021/12/21 07:29:33;;;;;;;1.10;0.77;;;-3.60;99.90;;;;;;5124560;27;20196;-52
2021/12/21 07:31:59;;;;;;;1.80;0.93;;;-3.60;99.90;;;;;;5125160;27;20184;-46
2021/12/21 07:34:24;;;;;;;5.17;1.10;;;-3.70;99.90;;;;;;5107622;27;20195;-47
2021/12/21 07:36:50;;;;;;;2.60;1.07;;;-3.60;99.90;;;;;;5124182;27;20172;-52
2021/12/21 07:39:18;;;;;;;0.67;0.60;;;-3.50;99.90;;;;;;5124530;27;20210;-51
2021/12/21 07:41:45;;;;;;;2.23;1.47;;;-3.50;99.90;;;;;;5123820;27;20208;-52
2021/12/21 07:44:11;;;;;;;0.93;0.93;;;-3.60;99.90;;;;;;5125951;27;20212;-56
2021/12/21 07:46:40;;;;;;;1.50;0.80;;;-3.60;99.90;;;;;;5124138;27;20283;-49
2021/12/21 07:49:06;;;;;;;1.13;1.10;;;-3.50;99.90;;;;;;5125343;27;20212;-46
2021/12/21 07:51:32;;;;;;;1.27;1.17;;;-3.50;99.90;;;;;;5124391;27;20192;-45
2021/12/21 07:53:58;;;;;;;1.17;1.07;;;-3.50;99.90;;;;;;5123609;27;20267;-46
2021/12/21 07:56:24;;;;;;;0.50;0.50;;;-3.60;99.90;;;;;;5124179;27;20265;-49
2021/12/21 07:58:50;;;;;;;0.40;0.40;;;-3.60;99.90;;;;;;5106233;27;20196;-56
2021/12/21 08:01:16;;;;;;;0.40;0.40;;;-3.40;99.90;;;;;;5124297;27;20221;-49
2021/12/21 08:03:42;;;;;;;2.10;1.60;;;-3.50;99.90;;;;;;5106573;27;20187;-47
2021/12/21 08:06:11;;;;;;;0.70;0.63;;;-3.40;99.90;;;;;;5125186;27;20229;-55
2021/12/21 08:08:40;;;;;;;0.50;0.50;;;-3.40;99.90;;;;;;5106422;27;20203;-53
2021/12/21 08:13:36;;;;;;;1.00;1.00;;;-3.30;99.90;;;;;;5123664;27;20188;-49
2021/12/21 08:16:01;;;;;;;1.00;1.00;;;-3.30;99.90;;;;;;5123260;28;20219;-46
2021/12/21 08:18:27;;;;;;;1.40;1.03;;;-3.40;99.90;;;;;;5124482;27;20189;-54
2021/12/21 08:20:53;;;;;;;0.87;0.80;;;-3.30;99.90;;;;;;5122746;28;20308;-46
2021/12/21 08:23:19;;;;;;;0.60;0.60;;;-3.30;99.90;;;;;;5125600;28;20222;-49
2021/12/21 08:25:45;;;;;;;1.70;1.60;;;-3.20;99.90;;;;;;5123297;27;20239;-47
2021/12/21 08:28:11;;;;;;;0.93;0.93;;;-3.20;99.90;;;;;;5124119;28;20216;-49
2021/12/21 08:30:38;;;;;;;1.37;1.13;;;-3.10;99.90;;;;;;5123642;28;20192;-46
2021/12/21 08:33:04;;;;;;;0.87;0.60;;;-3.10;99.90;;;;;;5123476;28;20199;-45
2021/12/21 08:35:31;;;;;;;2.87;1.43;;;-3.10;99.90;;;;;;5123769;27;20192;-44
2021/12/21 08:38:05;;;;;;;0.80;0.80;;;-3.10;99.90;;;;;;5122788;28;20253;-44
2021/12/21 08:40:38;;;;;;;0.73;0.73;;;-3.10;99.90;;;;;;5107852;28;20283;-47
2021/12/21 08:43:13;;;;;;;7.07;0.93;;;-3.10;99.90;;;;;;5106291;28;20311;-50
2021/12/21 08:45:41;;;;;;;0.73;0.73;;;-3.10;99.90;;;;;;5106562;28;20220;-47
2021/12/21 08:48:08;;;;;;;1.83;1.40;;;-3.10;99.90;;;;;;5123194;27;20189;-48
2021/12/21 08:50:35;;;;;;;1.03;0.87;;;-3.10;99.90;;;;;;5123369;28;20184;-45
2021/12/21 08:53:01;;;;;;;1.50;1.40;;;-3.00;99.90;;;;;;5106663;28;20191;-47
2021/12/21 08:55:27;;;;;;;0.63;0.63;;;-3.00;99.90;;;;;;5122314;28;20262;-46
2021/12/21 08:57:53;;;;;;;1.80;0.93;;;-2.90;99.90;;;;;;5125080;27;20188;-50
2021/12/21 09:00:20;;;;;;;0.63;0.63;;;-3.00;99.90;;;;;;5105588;28;20215;-47
2021/12/21 09:02:46;;;;;;;0.90;0.90;;;-3.00;99.90;;;;;;5124142;28;20189;-48
2021/12/21 09:05:18;;;;;;;2.27;1.47;;;-2.90;99.90;;;;;;5123636;27;20220;-50
2021/12/21 09:07:49;;;;;;;1.37;1.37;;;-2.90;99.90;;;;;;5123162;28;20203;-45
2021/12/21 09:10:18;;;;;;;1.33;0.97;;;-2.90;99.90;;;;;;5123319;28;20184;-52
2021/12/21 09:12:44;;;;;;;1.33;1.20;;;-2.90;99.90;;;;;;5121960;28;20189;-54
2021/12/21 09:15:11;;;;;;;1.13;1.13;;;-2.90;99.90;;;;;;5124777;28;20185;-49
2021/12/21 09:17:40;;;;;;;0.70;0.70;;;-2.90;99.90;;;;;;5122020;28;20235;-49
2021/12/21 09:20:07;;;;;;;2.00;1.70;;;-2.70;99.90;;;;;;5124211;27;20180;-45
2021/12/21 09:22:33;;;;;;;0.67;0.50;;;-2.70;99.90;;;;;;5106244;28;20188;-44
2021/12/21 09:24:59;;;;;;;1.17;1.07;;;-2.70;99.90;;;;;;5122386;27;20208;-49
2021/12/21 09:27:25;;;;;;;0.50;0.50;;;-2.80;99.90;;;;;;5123418;28;20191;-44
2021/12/21 09:29:51;;;;;;;1.43;1.43;;;-2.80;99.90;;;;;;5122930;27;20192;-53
2021/12/21 09:32:18;;;;;;;1.60;1.50;;;-2.80;99.90;;;;;;5127185;27;20229;-47
2021/12/21 09:34:46;;;;;;;1.13;1.13;;;-2.80;99.90;;;;;;5126233;27;20301;-45
2021/12/21 09:37:19;;;;;;;3.93;2.27;;;-2.80;99.90;;;;;;5128244;27;20196;-56
2021/12/21 09:39:51;;;;;;;1.03;1.03;;;-2.70;99.90;;;;;;5126584;27;20188;-53
2021/12/21 09:42:19;;;;;;;0.47;0.47;;;-2.60;99.90;;;;;;5109193;27;20188;-48
2021/12/21 09:44:47;;;;;;;7.93;1.10;;;-2.60;99.90;;;;;;5126196;27;20249;-44
2021/12/21 09:47:14;;;;;;;1.50;1.40;;;-2.60;99.90;;;;;;5126599;27;20192;-48
2021/12/21 09:49:42;;;;;;;0.97;0.90;;;-2.50;99.90;;;;;;5127638;27;20237;-46
2021/12/21 09:52:10;;;;;;;1.60;0.53;;;-2.40;99.90;;;;;;5108903;27;20188;-52
2021/12/21 09:54:37;;;;;;;0.97;0.97;;;-2.30;99.90;;;;;;5110360;27;20224;-47
2021/12/21 09:57:04;;;;;;;1.13;1.10;;;-2.30;99.90;;;;;;5126040;27;20184;-45
2021/12/21 09:59:29;;;;;;;0.87;0.87;;;-2.30;99.90;;;;;;5125548;27;20282;-48
2021/12/21 10:01:57;;;;;;;0.97;0.90;;;-2.20;99.90;;;;;;5109182;27;20196;-45
2021/12/21 10:04:28;;;;;;;1.40;1.30;;;-2.20;99.90;;;;;;5125779;27;20220;-46
2021/12/21 10:06:56;;;;;;;1.40;1.30;;;-2.20;99.90;;;;;;5127387;27;20202;-44
2021/12/21 10:09:31;;;;;;;1.93;1.37;;;-2.20;99.90;;;;;;5125487;27;20241;-44
2021/12/21 10:11:57;;;;;;;4.27;1.10;;;-2.20;99.90;;;;;;5127096;27;20196;-44
2021/12/21 10:14:25;;;;;;;1.63;1.40;;;-2.10;99.90;;;;;;5126210;27;20203;-44
2021/12/21 10:17:06;;;;;;;1.30;1.30;;;-2.10;99.90;;;;;;5125286;27;20209;-46
2021/12/21 10:19:32;;;;;;;1.60;1.50;;;-2.00;99.90;;;;;;5125782;27;20190;-46
2021/12/21 10:22:12;;;;;;;2.60;1.93;;;-2.00;99.90;;;;;;5125026;27;20193;-49
2021/12/21 10:24:49;;;;;;;1.43;1.43;;;-1.90;99.90;;;;;;5126879;27;20219;-45
2021/12/21 10:27:18;;;;;;;0.60;0.60;;;-1.80;99.90;;;;;;5126155;27;20184;-54
2021/12/21 10:29:53;;;;;;;0.73;0.73;;;-1.80;99.90;;;;;;5125903;27;20177;-50
2021/12/21 10:32:22;;;;;;;1.27;1.27;;;-1.80;99.90;;;;;;5126425;27;20188;-45
2021/12/21 10:34:56;;;;;;;1.73;1.17;;;-1.60;99.90;;;;;;5108078;27;20215;-52
2021/12/21 10:37:34;;;;;;;2.27;1.67;;;-1.50;99.90;;;;;;5109649;27;20187;-54
2021/12/21 10:40:12;;;;;;;1.10;1.10;;;-1.50;99.90;;;;;;5107917;27;20279;-53
2021/12/21 10:42:53;;;;;;;1.87;1.77;;;-1.50;99.90;;;;;;5108032;27;20184;-47
2021/12/21 10:45:44;;;;;;;0.93;0.93;;;-1.40;99.90;;;;;;5125082;27;20212;-48
2021/12/21 10:48:18;;;;;;;1.23;1.23;;;-1.40;99.90;;;;;;5106463;27;20319;-52
2021/12/21 10:50:46;;;;;;;1.63;1.50;;;-1.40;99.90;;;;;;5126626;27;20275;-43
2021/12/21 10:53:25;;;;;;;1.43;1.27;;;-1.40;99.90;;;;;;5125215;27;20186;-50
2021/12/21 10:56:08;;;;;;;2.27;2.17;;;-1.40;99.90;;;;;;5124759;27;20188;-43
2021/12/21 10:58:41;;;;;;;0.63;0.63;;;-1.20;99.90;;;;;;5108662;27;20188;-52
2021/12/21 11:01:10;;;;;;;2.50;1.83;;;-1.10;99.90;;;;;;5124533;27;20245;-50
2021/12/21 11:03:52;;;;;;;5.93;2.03;;;-1.10;99.90;;;;;;5110199;27;20294;-46
2021/12/21 11:06:25;;;;;;;5.23;1.83;;;-1.00;99.90;;;;;;5125343;27;20297;-45
2021/12/21 11:08:54;;;;;;;3.20;1.93;;;-0.90;99.90;;;;;;5107308;27;20291;-45
2021/12/21 11:11:37;;;;;;;2.73;2.50;;;-0.80;99.90;;;;;;5125488;27;20192;-46
2021/12/21 11:14:14;;;;;;;3.00;1.47;;;-0.80;99.90;;;;;;5124552;27;20192;-48
2021/12/21 11:16:49;;;;;;;2.50;2.30;;;-0.80;99.90;;;;;;5126784;27;20300;-48
2021/12/21 11:19:17;;;;;;;3.60;1.37;;;-0.70;99.90;;;;;;5124451;27;20324;-53
2021/12/21 11:21:44;;;;;;;2.23;2.07;;;-0.60;99.90;;;;;;5124357;27;20189;-49
2021/12/21 11:24:13;;;;;;;1.20;1.20;;;-0.60;99.90;;;;;;5124705;27;20219;-48
2021/12/21 11:26:41;;;;;;;1.43;1.33;;;-0.50;99.90;;;;;;5123808;27;20188;-48
2021/12/21 11:29:09;;;;;;;2.00;1.67;;;-0.50;99.90;;;;;;5125730;27;20177;-48
2021/12/21 11:31:41;;;;;;;3.27;1.57;;;-0.50;99.90;;;;;;5123700;27;20188;-53
2021/12/21 11:34:15;;;;;;;4.50;2.20;;;-0.50;99.90;;;;;;5109573;27;20185;-55
2021/12/21 11:39:35;;;;;;;1.43;1.40;;;-0.40;99.90;;;;;;5123787;27;20180;-44
2021/12/21 11:42:02;;;;;;;2.97;1.90;;;-0.40;99.90;;;;;;5124555;27;20177;-48
2021/12/21 11:44:47;;;;;;;2.53;1.03;;;-0.40;99.90;;;;;;5123511;27;20212;-53
2021/12/21 11:47:18;;;;;;;1.33;1.33;;;-0.30;99.90;;;;;;5124767;27;20214;-53
2021/12/21 11:49:48;;;;;;;3.43;2.50;;;-0.30;99.90;;;;;;5107372;27;20204;-57
2021/12/21 11:52:20;;;;;;;3.27;2.30;;;-0.30;99.90;;;;;;5124165;27;20284;-52
2021/12/21 11:54:54;;;;;;;1.57;1.57;;;-0.30;99.90;;;;;;5123223;27;20262;-47
2021/12/21 11:57:35;;;;;;;2.20;2.03;;;-0.20;99.90;;;;;;5106396;27;20230;-49
2021/12/21 12:00:06;;;;;;;2.63;2.43;;;-0.20;99.90;;;;;;5108316;27;20192;-49
2021/12/21 12:02:33;;;;;;;2.97;1.43;;;-0.20;99.90;;;;;;5106775;27;20192;-49
2021/12/21 12:04:59;;;;;;;4.10;2.20;;;-0.20;99.90;;;;;;5123867;27;20216;-48
2021/12/21 12:07:25;;;;;;;14.77;1.87;;;-0.20;99.90;;;;;;5124230;27;20206;-50
2021/12/21 12:10:19;;;;;;;3.40;1.53;;;-0.20;99.90;;;;;;5123373;27;20203;-52
2021/12/21 12:12:45;;;;;;;10.00;1.40;;;-0.10;99.90;;;;;;5105528;27;20196;-50
2021/12/21 12:15:10;;;;;;;1.10;1.10;;;-0.10;99.90;;;;;;5123256;27;20197;-47
2021/12/21 12:17:46;;;;;;;1.33;1.03;;;0.00;99.90;;;;;;5124821;28;20220;-47
2021/12/21 12:20:14;;;;;;;1.53;1.43;;;0.00;99.90;;;;;;5106578;28;20210;-47
2021/12/21 12:22:45;;;;;;;1.93;1.83;;;0.00;99.90;;;;;;5123103;28;20224;-54
2021/12/21 12:25:23;;;;;;;3.10;1.33;;;0.00;99.90;;;;;;5123983;28;20227;-50
2021/12/21 12:27:52;;;;;;;1.20;1.10;;;0.10;99.90;;;;;;5123045;28;20188;-50
2021/12/21 12:30:23;;;;;;;3.47;1.30;;;0.10;99.90;;;;;;5108062;28;20188;-47
2021/12/21 12:32:49;;;;;;;2.60;1.90;;;0.20;99.90;;;;;;5124118;28;20184;-56
2021/12/21 12:35:21;;;;;;;0.93;0.93;;;0.20;99.90;;;;;;5106720;28;20195;-51
2021/12/21 12:38:15;;;;;;;0.97;0.97;;;0.20;99.90;;;;;;5106606;28;20200;-45
2021/12/21 12:41:02;;;;;;;0.30;0.30;;;0.20;99.90;;;;;;5095578;28;20188;-47
2021/12/21 12:43:32;;;;;;;0.97;0.90;;;0.20;99.90;;;;;;5124554;28;20283;-49
2021/12/21 12:46:04;;;;;;;1.40;1.30;;;0.20;99.90;;;;;;5123696;28;20248;-49
2021/12/21 12:48:32;;;;;;;1.60;1.10;;;0.10;99.90;;;;;;5122755;28;20283;-50
2021/12/21 12:51:04;;;;;;;2.00;1.27;;;0.20;99.90;;;;;;5123868;28;20185;-51
2021/12/21 12:53:45;;;;;;;1.20;1.20;;;0.20;99.90;;;;;;5122502;27;20180;-49
2021/12/21 12:56:15;;;;;;;1.43;1.43;;;0.20;99.90;;;;;;5125107;27;20196;-50
2021/12/21 12:59:14;;;;;;;3.53;1.63;;;0.30;99.90;;;;;;5106106;28;20200;-50
2021/12/21 13:01:42;;;;;;;1.07;1.07;;;0.30;99.90;;;;;;5122711;28;20253;-50
2021/12/21 13:04:12;;;;;;;1.93;1.37;;;0.20;99.90;;;;;;5123952;27;20220;-54
2021/12/21 13:06:40;;;;;;;0.97;0.93;;;0.20;99.90;;;;;;5125827;27;20196;-51
2021/12/21 13:09:08;;;;;;;1.07;0.60;;;0.20;99.90;;;;;;5128839;27;20350;-50
2021/12/21 13:11:37;;;;;;;0.63;0.63;;;0.20;99.90;;;;;;5126791;27;20188;-51
2021/12/21 13:14:03;;;;;;;1.27;0.90;;;0.20;99.90;;;;;;5127676;27;20176;-46
2021/12/21 13:16:32;;;;;;;1.90;1.10;;;0.30;99.90;;;;;;5127477;27;20192;-56
2021/12/21 13:19:02;;;;;;;0.97;0.73;;;0.30;99.90;;;;;;5126607;27;20188;-46
2021/12/21 13:21:40;;;;;;;0.70;0.70;;;0.20;99.90;;;;;;5127515;27;20184;-54
2021/12/21 13:24:21;;;;;;;1.27;1.27;;;0.20;99.90;;;;;;5126714;27;20381;-50
2021/12/21 13:26:54;;;;;;;1.83;1.07;;;0.20;99.90;;;;;;5127874;27;20184;-49
2021/12/21 13:29:23;;;;;;;2.10;1.83;;;0.20;99.90;;;;;;5127210;27;20237;-50
2021/12/21 13:31:52;;;;;;;2.87;1.00;;;0.30;99.90;;;;;;5126370;27;20188;-56
2021/12/21 13:34:20;;;;;;;1.00;1.00;;;0.30;99.90;;;;;;5126924;27;20184;-48
2021/12/21 13:36:49;;;;;;;0.73;0.73;;;0.30;99.90;;;;;;5126019;27;20181;-49
2021/12/21 13:39:27;;;;;;;2.17;1.83;;;0.20;99.90;;;;;;5128163;27;20198;-48
2021/12/21 13:41:56;;;;;;;0.97;0.97;;;0.20;99.90;;;;;;5126264;27;20217;-53
2021/12/21 13:44:31;;;;;;;2.07;1.00;;;0.30;99.90;;;;;;5127240;27;20212;-50
2021/12/21 13:47:00;;;;;;;1.47;1.47;;;0.30;99.90;;;;;;5126957;27;20264;-48
2021/12/21 13:49:26;;;;;;;4.33;2.03;;;0.40;99.90;;;;;;5126546;27;20220;-46
2021/12/21 13:51:58;;;;;;;1.10;1.10;;;0.40;99.90;;;;;;5127009;27;20271;-53
2021/12/21 13:54:25;;;;;;;0.80;0.80;;;0.40;99.90;;;;;;5125697;27;20253;-58
2021/12/21 13:56:52;;;;;;;0.60;0.60;;;0.50;99.90;;;;;;5128012;27;20237;-48
2021/12/21 13:59:19;;;;;;;0.90;0.90;;;0.50;99.90;;;;;;5126347;27;20540;-54
2021/12/21 14:01:49;;;;;;;3.23;1.50;;;0.40;99.90;;;;;;5126947;27;20200;-52
2021/12/21 14:04:24;;;;;;;1.03;0.93;;;0.40;99.90;;;;;;5127301;27;20208;-53
2021/12/21 14:06:50;;;;;;;0.97;0.70;;;0.40;99.90;;;;;;5126790;27;20188;-51
2021/12/21 14:09:19;;;;;;;1.50;1.03;;;0.30;99.90;;;;;;5127063;27;20237;-50
2021/12/21 14:11:45;;;;;;;1.33;1.23;;;0.30;99.90;;;;;;5125197;27;20188;-49
2021/12/21 14:14:17;;;;;;;1.77;1.60;;;0.20;99.90;;;;;;5127856;27;20192;-50
2021/12/21 14:16:48;;;;;;;0.90;0.90;;;0.20;99.90;;;;;;5125089;27;20191;-55
2021/12/21 14:19:21;;;;;;;1.30;1.20;;;0.30;99.90;;;;;;5125226;27;20188;-49